NRL44K KMEM-KOLV
Flight info
| Callsign | NRL44K |
|---|---|
| Flight time | 0h -6m |
| Altitude | 5000 |
| Route | DOCAP |
| Aircraft | B734/M-SDE2E3FHIRW/S |
Departure
| Time | 2026-04-21 02:19 |
|---|---|
| Airport | Memphis International Airport (KMEM) |
Arrival
| Time | 2026-04-21 02:13 |
|---|---|
| Airport | Olive Branch Airport (KOLV) |
| Time | Latitude | Longitude | Altitude | Speed | Heading |
|---|---|---|---|---|---|
| 2026-04-21 02:13 | 35.05454 | -89.98058 | 268 ft | 0 kts | 270° |
| 2026-04-21 02:17 | 35.05454 | -89.98063 | 268 ft | 4 kts | 278° |
| 2026-04-21 02:17 | 35.05494 | -89.98068 | 267 ft | 14 kts | 82° |
| 2026-04-21 02:17 | 35.05490 | -89.97935 | 269 ft | 15 kts | 95° |
| 2026-04-21 02:17 | 35.05472 | -89.97809 | 269 ft | 11 kts | 114° |
| 2026-04-21 02:18 | 35.05450 | -89.97752 | 270 ft | 0 kts | 109° |
| 2026-04-21 02:18 | 35.05450 | -89.97751 | 270 ft | 0 kts | 108° |
| 2026-04-21 02:18 | 35.05439 | -89.97673 | 271 ft | 11 kts | 102° |
| 2026-04-21 02:19 | 35.05309 | -89.97616 | 275 ft | 47 kts | 179° |
| 2026-04-21 02:19 | 35.04621 | -89.97605 | 297 ft | 143 kts | 179° |
| 2026-04-21 02:19 | 35.03535 | -89.97519 | 892 ft | 168 kts | 157° |
| 2026-04-21 02:19 | 35.02419 | -89.96882 | 1507 ft | 197 kts | 141° |
| 2026-04-21 02:20 | 35.01826 | -89.95353 | 1835 ft | 193 kts | 92° |
| 2026-04-21 02:20 | 35.02371 | -89.93774 | 2261 ft | 220 kts | 45° |
| 2026-04-21 02:20 | 35.03705 | -89.92838 | 2650 ft | 223 kts | 23° |
| 2026-04-21 02:20 | 35.05172 | -89.92044 | 2950 ft | 228 kts | 24° |
| 2026-04-21 02:21 | 35.06581 | -89.91278 | 3386 ft | 208 kts | 24° |
| 2026-04-21 02:21 | 35.07914 | -89.90546 | 3819 ft | 215 kts | 23° |
| 2026-04-21 02:21 | 35.09300 | -89.89790 | 4115 ft | 219 kts | 22° |
| 2026-04-21 02:21 | 35.10578 | -89.88808 | 4171 ft | 214 kts | 40° |
| 2026-04-21 02:22 | 35.11592 | -89.87491 | 3860 ft | 208 kts | 51° |
| 2026-04-21 02:22 | 35.12437 | -89.86163 | 3562 ft | 196 kts | 54° |
| 2026-04-21 02:22 | 35.13214 | -89.84877 | 3063 ft | 182 kts | 56° |
| 2026-04-21 02:22 | 35.13932 | -89.83659 | 2771 ft | 176 kts | 57° |
| 2026-04-21 02:23 | 35.14652 | -89.82433 | 2658 ft | 178 kts | 57° |
| 2026-04-21 02:23 | 35.15346 | -89.81184 | 2590 ft | 174 kts | 65° |
| 2026-04-21 02:23 | 35.15468 | -89.79797 | 2497 ft | 164 kts | 109° |
| 2026-04-21 02:23 | 35.14790 | -89.78751 | 2448 ft | 155 kts | 153° |
| 2026-04-21 02:24 | 35.13783 | -89.78603 | 2363 ft | 142 kts | 187° |
| 2026-04-21 02:24 | 35.12809 | -89.78717 | 2379 ft | 139 kts | 182° |
| 2026-04-21 02:24 | 35.11862 | -89.78537 | 2390 ft | 142 kts | 159° |
| 2026-04-21 02:24 | 35.11023 | -89.77878 | 2421 ft | 144 kts | 144° |
| 2026-04-21 02:25 | 35.10149 | -89.77351 | 2359 ft | 142 kts | 167° |
| 2026-04-21 02:25 | 35.09181 | -89.77321 | 2325 ft | 138 kts | 188° |
| 2026-04-21 02:25 | 35.08264 | -89.77717 | 2190 ft | 140 kts | 205° |
| 2026-04-21 02:25 | 35.07508 | -89.78409 | 2019 ft | 133 kts | 214° |
| 2026-04-21 02:26 | 35.06694 | -89.78873 | 1901 ft | 131 kts | 186° |
| 2026-04-21 02:26 | 35.05818 | -89.78830 | 1714 ft | 124 kts | 170° |
| 2026-04-21 02:26 | 35.04995 | -89.78677 | 1589 ft | 122 kts | 173° |
| 2026-04-21 02:26 | 35.04142 | -89.78696 | 1440 ft | 122 kts | 181° |
| 2026-04-21 02:27 | 35.03310 | -89.78714 | 1308 ft | 121 kts | 177° |
| 2026-04-21 02:27 | 35.02467 | -89.78719 | 1170 ft | 118 kts | 178° |
| 2026-04-21 02:27 | 35.01631 | -89.78703 | 998 ft | 124 kts | 176° |
| 2026-04-21 02:27 | 35.00762 | -89.78707 | 837 ft | 119 kts | 177° |
| 2026-04-21 02:28 | 34.99912 | -89.78689 | 659 ft | 120 kts | 175° |
| 2026-04-21 02:28 | 34.99039 | -89.78676 | 507 ft | 124 kts | 179° |
| 2026-04-21 02:28 | 34.98185 | -89.78687 | 403 ft | 117 kts | 179° |
| 2026-04-21 02:28 | 34.97593 | -89.78684 | 398 ft | 51 kts | 179° |